createdAt,value
2016-11-09T00:00:01.752Z,1003.02
2016-11-09T00:00:12.080Z,1003.05
2016-11-09T00:00:21.740Z,1003.03
2016-11-09T00:00:31.733Z,1003.07
2016-11-09T00:00:41.727Z,1003.09
2016-11-09T00:00:51.720Z,1003.07
2016-11-09T00:01:01.716Z,1003.07
2016-11-09T00:01:11.707Z,1003.03
2016-11-09T00:01:21.700Z,1003.09
2016-11-09T00:01:31.694Z,1003.07
2016-11-09T00:01:41.689Z,1003.02
2016-11-09T00:01:51.682Z,1003.06
2016-11-09T00:02:01.675Z,1003.03
2016-11-09T00:02:11.670Z,1003.11
2016-11-09T00:02:21.663Z,1003.03
2016-11-09T00:02:31.655Z,1003.04
2016-11-09T00:02:41.648Z,1003.04
2016-11-09T00:02:51.656Z,1003.06
2016-11-09T00:03:01.637Z,1003.05
2016-11-09T00:03:11.629Z,1003.05
2016-11-09T00:03:21.624Z,1003.05
2016-11-09T00:03:31.617Z,1003.03
2016-11-09T00:03:41.945Z,1003.08
2016-11-09T00:03:51.604Z,1003.04
2016-11-09T00:04:01.598Z,1003.01
2016-11-09T00:04:11.617Z,1003.02
2016-11-09T00:04:21.585Z,1003.01
2016-11-09T00:04:31.585Z,1003.02
2016-11-09T00:04:41.573Z,1003.02
2016-11-09T00:04:51.667Z,1003.03
2016-11-09T00:05:01.558Z,1003.04
2016-11-09T00:05:11.552Z,1003.02
2016-11-09T00:05:21.545Z,1003.09
2016-11-09T00:05:31.540Z,1003.05
2016-11-09T00:05:41.530Z,1003.06
2016-11-09T00:05:51.526Z,1003.04
2016-11-09T00:06:01.519Z,1003.07
2016-11-09T00:06:11.515Z,1003.05
2016-11-09T00:06:21.507Z,1003.06
2016-11-09T00:06:31.501Z,1003.03
2016-11-09T00:06:41.495Z,1003.01
2016-11-09T00:06:51.488Z,1003.08
2016-11-09T00:07:01.484Z,1003.02
2016-11-09T00:07:11.474Z,1003.04
2016-11-09T00:07:21.468Z,1003.03
2016-11-09T00:07:31.464Z,1003.05
2016-11-09T00:07:41.456Z,1003.08
2016-11-09T00:07:51.450Z,1003.04
2016-11-09T00:08:01.442Z,1003.05
2016-11-09T00:08:11.435Z,1003.06
2016-11-09T00:08:21.431Z,1003.04
2016-11-09T00:08:31.759Z,1003.03
2016-11-09T00:08:41.420Z,1003.01
2016-11-09T00:08:51.411Z,1003.06
2016-11-09T00:09:01.404Z,1002.99
2016-11-09T00:09:11.401Z,1003.02
2016-11-09T00:09:21.391Z,1003.04
2016-11-09T00:09:31.386Z,1003
2016-11-09T00:09:41.379Z,1003.01
2016-11-09T00:09:51.372Z,1002.98
2016-11-09T00:10:01.365Z,1003.04
2016-11-09T00:10:11.363Z,1003.04
2016-11-09T00:10:21.353Z,1003.05
2016-11-09T00:10:31.348Z,1003
2016-11-09T00:10:41.340Z,1003.03
2016-11-09T00:10:51.434Z,1003.01
2016-11-09T00:11:01.325Z,1002.99
2016-11-09T00:11:11.318Z,1002.99
2016-11-09T00:11:21.314Z,1002.98
2016-11-09T00:11:31.307Z,1002.99
2016-11-09T00:11:41.301Z,1002.95
2016-11-09T00:11:51.295Z,1002.97
2016-11-09T00:12:01.287Z,1002.99
2016-11-09T00:12:11.281Z,1002.96
2016-11-09T00:12:21.276Z,1003.02
2016-11-09T00:12:31.266Z,1002.96
2016-11-09T00:12:41.263Z,1002.97
2016-11-09T00:12:51.256Z,1002.93
2016-11-09T00:13:01.248Z,1002.93
2016-11-09T00:13:11.245Z,1003
2016-11-09T00:13:21.235Z,1002.96
2016-11-09T00:13:31.231Z,1002.97
2016-11-09T00:13:41.225Z,1002.95
2016-11-09T00:13:51.216Z,1002.92
2016-11-09T00:14:01.211Z,1002.94
2016-11-09T00:14:11.206Z,1002.94
2016-11-09T00:14:21.198Z,1002.96
2016-11-09T00:14:31.192Z,1002.99
2016-11-09T00:14:41.185Z,1002.96
2016-11-09T00:14:51.178Z,1002.94
2016-11-09T00:15:01.173Z,1002.92
2016-11-09T00:15:11.164Z,1002.96
2016-11-09T00:15:21.157Z,1002.94
2016-11-09T00:15:31.153Z,1002.91
2016-11-09T00:15:41.144Z,1002.95
2016-11-09T00:15:51.140Z,1002.94
2016-11-09T00:16:01.131Z,1002.93
2016-11-09T00:16:11.127Z,1002.93
2016-11-09T00:16:21.119Z,1002.96
2016-11-09T00:16:31.113Z,1002.93
2016-11-09T00:16:41.107Z,1002.92
2016-11-09T00:16:51.101Z,1002.88
2016-11-09T00:17:01.094Z,1002.95
2016-11-09T00:17:11.090Z,1002.97
2016-11-09T00:17:21.081Z,1002.94
2016-11-09T00:17:31.091Z,1002.97
2016-11-09T00:17:41.068Z,1002.92
2016-11-09T00:17:51.396Z,1002.99
2016-11-09T00:18:01.057Z,1002.92
2016-11-09T00:18:11.050Z,1002.92
2016-11-09T00:18:21.043Z,1002.96
2016-11-09T00:18:31.039Z,1002.88
2016-11-09T00:18:41.032Z,1002.93
2016-11-09T00:18:51.025Z,1002.95
2016-11-09T00:19:01.016Z,1002.89
2016-11-09T00:19:11.115Z,1002.92
2016-11-09T00:19:21.006Z,1002.88
2016-11-09T00:19:30.999Z,1002.88
2016-11-09T00:19:41.007Z,1002.86
2016-11-09T00:19:50.985Z,1002.84
2016-11-09T00:20:00.978Z,1002.87
2016-11-09T00:20:10.972Z,1002.88
2016-11-09T00:20:20.972Z,1002.85
2016-11-09T00:20:30.958Z,1002.83
2016-11-09T00:20:40.951Z,1002.88
2016-11-09T00:20:50.945Z,1002.87
2016-11-09T00:21:00.940Z,1002.95
2016-11-09T00:21:10.933Z,1002.88
2016-11-09T00:21:20.926Z,1002.86
2016-11-09T00:21:30.921Z,1002.83
2016-11-09T00:21:40.933Z,1002.9
2016-11-09T00:21:50.908Z,1002.88
2016-11-09T00:22:00.899Z,1002.85
2016-11-09T00:22:10.893Z,1002.83
2016-11-09T00:22:21.223Z,1002.78
2016-11-09T00:22:30.882Z,1002.8
2016-11-09T00:22:40.896Z,1002.82
2016-11-09T00:22:50.869Z,1002.81
2016-11-09T00:23:00.864Z,1002.82
2016-11-09T00:23:10.855Z,1002.84
2016-11-09T00:23:20.850Z,1002.83
2016-11-09T00:23:30.841Z,1002.8
2016-11-09T00:23:40.836Z,1002.78
2016-11-09T00:23:50.830Z,1002.8
2016-11-09T00:24:00.823Z,1002.78
2016-11-09T00:24:10.816Z,1002.77
2016-11-09T00:24:20.811Z,1002.8
2016-11-09T00:24:30.804Z,1002.79
2016-11-09T00:24:40.799Z,1002.81
2016-11-09T00:24:50.790Z,1002.78
2016-11-09T00:25:00.786Z,1002.79
2016-11-09T00:25:10.778Z,1002.79
2016-11-09T00:25:20.771Z,1002.79
2016-11-09T00:25:30.765Z,1002.8
2016-11-09T00:25:40.760Z,1002.85
2016-11-09T00:25:50.752Z,1002.86
2016-11-09T00:26:00.746Z,1002.81
2016-11-09T00:26:10.738Z,1002.82
2016-11-09T00:26:20.732Z,1002.78
2016-11-09T00:26:30.725Z,1002.8
2016-11-09T00:26:40.719Z,1002.77
2016-11-09T00:26:50.714Z,1002.81
2016-11-09T00:27:00.707Z,1002.8
2016-11-09T00:27:10.700Z,1002.77
2016-11-09T00:27:20.693Z,1002.8
2016-11-09T00:27:30.687Z,1002.76
2016-11-09T00:27:40.680Z,1002.8
2016-11-09T00:27:50.673Z,1002.82
2016-11-09T00:28:00.667Z,1002.78
2016-11-09T00:28:10.662Z,1002.76
2016-11-09T00:28:20.655Z,1002.78
2016-11-09T00:28:30.649Z,1002.78
2016-11-09T00:28:40.642Z,1002.77
2016-11-09T00:28:50.637Z,1002.73
2016-11-09T00:29:00.729Z,1002.73
2016-11-09T00:29:10.624Z,1002.73
2016-11-09T00:29:20.616Z,1002.76
2016-11-09T00:29:30.611Z,1002.82
2016-11-09T00:29:40.605Z,1002.76
2016-11-09T00:29:50.597Z,1002.75
2016-11-09T00:30:00.590Z,1002.85
2016-11-09T00:30:10.919Z,1002.78
2016-11-09T00:30:20.578Z,1002.78
2016-11-09T00:30:30.571Z,1002.77
2016-11-09T00:30:40.566Z,1002.77
2016-11-09T00:30:50.558Z,1002.78
2016-11-09T00:31:00.553Z,1002.78
2016-11-09T00:31:10.546Z,1002.78
2016-11-09T00:31:20.539Z,1002.78
2016-11-09T00:31:30.534Z,1002.71
2016-11-09T00:31:40.525Z,1002.81
2016-11-09T00:31:50.523Z,1002.78
2016-11-09T00:32:00.512Z,1002.75
2016-11-09T00:32:10.507Z,1002.72
2016-11-09T00:32:20.502Z,1002.79
2016-11-09T00:32:30.493Z,1002.76
2016-11-09T00:32:40.489Z,1002.79
2016-11-09T00:32:50.481Z,1002.76
2016-11-09T00:33:00.477Z,1002.73
2016-11-09T00:33:10.468Z,1002.76
2016-11-09T00:33:20.484Z,1002.73
2016-11-09T00:33:30.456Z,1002.81
2016-11-09T00:33:40.450Z,1002.73
2016-11-09T00:33:50.466Z,1002.73
2016-11-09T00:34:00.437Z,1002.67
2016-11-09T00:34:10.764Z,1002.71
2016-11-09T00:34:20.424Z,1002.74
2016-11-09T00:34:30.416Z,1002.73
2016-11-09T00:34:40.409Z,1002.73
2016-11-09T00:34:50.401Z,1002.71
2016-11-09T00:35:00.399Z,1002.71
2016-11-09T00:35:10.390Z,1002.72
2016-11-09T00:35:20.384Z,1002.75
2016-11-09T00:35:30.381Z,1002.75
2016-11-09T00:35:40.371Z,1002.77
2016-11-09T00:35:50.366Z,1002.74
2016-11-09T00:36:00.357Z,1002.78
2016-11-09T00:36:10.353Z,1002.74
2016-11-09T00:36:20.346Z,1002.73
2016-11-09T00:36:30.339Z,1002.73
2016-11-09T00:36:40.332Z,1002.76
2016-11-09T00:36:50.328Z,1002.69
2016-11-09T00:37:00.319Z,1002.67
2016-11-09T00:37:10.336Z,1002.71
2016-11-09T00:37:20.307Z,1002.74
2016-11-09T00:37:30.635Z,1002.7
2016-11-09T00:37:40.295Z,1002.69
2016-11-09T00:37:50.309Z,1002.72
2016-11-09T00:38:00.281Z,1002.72
2016-11-09T00:38:10.275Z,1002.69
2016-11-09T00:38:20.268Z,1002.67
2016-11-09T00:38:30.263Z,1002.72
2016-11-09T00:38:40.357Z,1002.74
2016-11-09T00:38:50.249Z,1002.71
2016-11-09T00:39:00.244Z,1002.7
2016-11-09T00:39:10.235Z,1002.73
2016-11-09T00:39:20.230Z,1002.72
2016-11-09T00:39:30.224Z,1002.75
2016-11-09T00:39:40.240Z,1002.7
2016-11-09T00:39:50.210Z,1002.72
2016-11-09T00:40:00.205Z,1002.66
2016-11-09T00:40:10.197Z,1002.71
2016-11-09T00:40:20.192Z,1002.68
2016-11-09T00:40:30.182Z,1002.67
2016-11-09T00:40:40.179Z,1002.69
2016-11-09T00:40:50.172Z,1002.65
2016-11-09T00:41:00.166Z,1002.74
2016-11-09T00:41:10.162Z,1002.69
2016-11-09T00:41:20.152Z,1002.68
2016-11-09T00:41:30.148Z,1002.72
2016-11-09T00:41:40.142Z,1002.7
2016-11-09T00:41:50.134Z,1002.71
2016-11-09T00:42:00.128Z,1002.72
2016-11-09T00:42:10.120Z,1002.67
2016-11-09T00:42:20.115Z,1002.67
2016-11-09T00:42:30.107Z,1002.7
2016-11-09T00:42:40.100Z,1002.7
2016-11-09T00:42:50.095Z,1002.69
2016-11-09T00:43:00.089Z,1002.69
2016-11-09T00:43:10.079Z,1002.68
2016-11-09T00:43:20.077Z,1002.66
2016-11-09T00:43:30.069Z,1002.72
2016-11-09T00:43:40.063Z,1002.68
2016-11-09T00:43:50.055Z,1002.69
2016-11-09T00:44:00.049Z,1002.72
2016-11-09T00:44:10.045Z,1002.68
2016-11-09T00:44:20.036Z,1002.69
2016-11-09T00:44:30.030Z,1002.69
2016-11-09T00:44:40.025Z,1002.63
2016-11-09T00:44:50.017Z,1002.69
2016-11-09T00:45:00.011Z,1002.67
2016-11-09T00:45:10.004Z,1002.65
2016-11-09T00:45:20.017Z,1002.62
2016-11-09T00:45:29.992Z,1002.66
2016-11-09T00:45:39.988Z,1002.68
2016-11-09T00:45:49.977Z,1002.68
2016-11-09T00:45:59.972Z,1002.72
2016-11-09T00:46:09.966Z,1002.68
2016-11-09T00:46:19.959Z,1002.64
2016-11-09T00:46:29.953Z,1002.7
2016-11-09T00:46:39.946Z,1002.65
2016-11-09T00:46:49.941Z,1002.69
2016-11-09T00:46:59.956Z,1002.68
2016-11-09T00:47:09.927Z,1002.72
2016-11-09T00:47:19.921Z,1002.73
2016-11-09T00:47:29.934Z,1002.69
2016-11-09T00:47:39.910Z,1002.71
2016-11-09T00:47:49.903Z,1002.68
2016-11-09T00:47:59.897Z,1002.74
2016-11-09T00:48:09.888Z,1002.7
2016-11-09T00:48:19.883Z,1002.7
2016-11-09T00:48:29.876Z,1002.72
2016-11-09T00:48:39.870Z,1002.72
2016-11-09T00:48:49.864Z,1002.76
2016-11-09T00:48:59.856Z,1002.68
2016-11-09T00:49:09.850Z,1002.63
2016-11-09T00:49:19.841Z,1002.67
2016-11-09T00:49:29.837Z,1002.66
2016-11-09T00:49:39.831Z,1002.64
2016-11-09T00:49:49.824Z,1002.68
2016-11-09T00:49:59.818Z,1002.65
2016-11-09T00:50:09.812Z,1002.6
2016-11-09T00:50:19.804Z,1002.65
2016-11-09T00:50:29.798Z,1002.66
2016-11-09T00:50:39.799Z,1002.68
2016-11-09T00:50:49.785Z,1002.67
2016-11-09T00:50:59.779Z,1002.65
2016-11-09T00:51:09.773Z,1002.7
2016-11-09T00:51:19.768Z,1002.69
2016-11-09T00:51:29.761Z,1002.69
2016-11-09T00:51:39.754Z,1002.64
2016-11-09T00:51:49.747Z,1002.6
2016-11-09T00:51:59.968Z,1002.64
2016-11-09T00:52:09.839Z,1002.67
2016-11-09T00:52:19.727Z,1002.67
2016-11-09T00:52:29.722Z,1002.67
2016-11-09T00:52:39.717Z,1002.64
2016-11-09T00:52:49.707Z,1002.64
2016-11-09T00:52:59.702Z,1002.63
2016-11-09T00:53:09.695Z,1002.63
2016-11-09T00:53:19.688Z,1002.63
2016-11-09T00:53:29.682Z,1002.61
2016-11-09T00:53:39.676Z,1002.64
2016-11-09T00:53:49.670Z,1002.58
2016-11-09T00:53:59.682Z,1002.65
2016-11-09T00:54:09.657Z,1002.64
2016-11-09T00:54:19.650Z,1002.65
2016-11-09T00:54:29.646Z,1002.66
2016-11-09T00:54:39.638Z,1002.62
2016-11-09T00:54:49.631Z,1002.6
2016-11-09T00:54:59.647Z,1002.67
2016-11-09T00:55:09.618Z,1002.64
2016-11-09T00:55:19.612Z,1002.63
2016-11-09T00:55:29.607Z,1002.63
2016-11-09T00:55:39.598Z,1002.6
2016-11-09T00:55:49.592Z,1002.68
2016-11-09T00:55:59.585Z,1002.6
2016-11-09T00:56:09.582Z,1002.62
2016-11-09T00:56:19.573Z,1002.62
2016-11-09T00:56:29.566Z,1002.63
2016-11-09T00:56:39.561Z,1002.63
2016-11-09T00:56:49.555Z,1002.61
2016-11-09T00:56:59.546Z,1002.63
2016-11-09T00:57:09.541Z,1002.64
2016-11-09T00:57:19.534Z,1002.61
2016-11-09T00:57:29.528Z,1002.6
2016-11-09T00:57:39.539Z,1002.67
2016-11-09T00:57:49.516Z,1002.64
2016-11-09T00:57:59.509Z,1002.65
2016-11-09T00:58:09.502Z,1002.65
2016-11-09T00:58:19.497Z,1002.6
2016-11-09T00:58:29.489Z,1002.63
2016-11-09T00:58:39.483Z,1002.63
2016-11-09T00:58:49.477Z,1002.62
2016-11-09T00:58:59.469Z,1002.59
2016-11-09T00:59:09.463Z,1002.66
2016-11-09T00:59:19.458Z,1002.64
2016-11-09T00:59:29.452Z,1002.67
2016-11-09T00:59:39.446Z,1002.59
2016-11-09T00:59:49.438Z,1002.61
2016-11-09T00:59:59.432Z,1002.67
2016-11-09T01:00:09.424Z,1002.67
2016-11-09T01:00:19.420Z,1002.62
2016-11-09T01:00:29.413Z,1002.59
2016-11-09T01:00:39.405Z,1002.64
2016-11-09T01:00:49.401Z,1002.6
2016-11-09T01:00:59.392Z,1002.62
2016-11-09T01:01:09.387Z,1002.64
2016-11-09T01:01:19.380Z,1002.62
2016-11-09T01:01:29.375Z,1002.63
2016-11-09T01:01:39.367Z,1002.59
2016-11-09T01:01:49.380Z,1002.65
2016-11-09T01:01:59.354Z,1002.63
2016-11-09T01:02:09.348Z,1002.68
2016-11-09T01:02:19.342Z,1002.65
2016-11-09T01:02:29.334Z,1002.64
2016-11-09T01:02:39.330Z,1002.64
2016-11-09T01:02:49.321Z,1002.68
2016-11-09T01:02:59.316Z,1002.68
2016-11-09T01:03:09.309Z,1002.65
2016-11-09T01:03:19.302Z,1002.72
2016-11-09T01:03:29.296Z,1002.66
2016-11-09T01:03:39.291Z,1002.7
2016-11-09T01:03:49.283Z,1002.62
2016-11-09T01:03:59.277Z,1002.61
2016-11-09T01:04:09.270Z,1002.63
2016-11-09T01:04:19.264Z,1002.63
2016-11-09T01:04:29.257Z,1002.61
2016-11-09T01:04:39.252Z,1002.63
2016-11-09T01:04:49.247Z,1002.61
2016-11-09T01:04:59.238Z,1002.58
2016-11-09T01:05:09.337Z,1002.6
2016-11-09T01:05:19.226Z,1002.64
2016-11-09T01:05:29.219Z,1002.6
2016-11-09T01:05:39.548Z,1002.61
2016-11-09T01:05:49.205Z,1002.64
2016-11-09T01:05:59.203Z,1002.59
2016-11-09T01:06:09.296Z,1002.64
2016-11-09T01:06:19.293Z,1002.61
2016-11-09T01:06:29.183Z,1002.61
2016-11-09T01:06:39.173Z,1002.6
2016-11-09T01:06:49.167Z,1002.6
2016-11-09T01:06:59.163Z,1002.64
2016-11-09T01:07:09.155Z,1002.62
2016-11-09T01:07:19.149Z,1002.57
2016-11-09T01:07:29.143Z,1002.6
2016-11-09T01:07:39.137Z,1002.61
2016-11-09T01:07:49.129Z,1002.59
2016-11-09T01:07:59.123Z,1002.59
2016-11-09T01:08:09.118Z,1002.61
2016-11-09T01:08:19.111Z,1002.6
2016-11-09T01:08:29.122Z,1002.61
2016-11-09T01:08:39.099Z,1002.59
2016-11-09T01:08:49.091Z,1002.56
2016-11-09T01:08:59.084Z,1002.58
2016-11-09T01:09:09.079Z,1002.6
2016-11-09T01:09:19.071Z,1002.56
2016-11-09T01:09:29.064Z,1002.61
2016-11-09T01:09:39.059Z,1002.57
2016-11-09T01:09:49.053Z,1002.58
2016-11-09T01:09:59.046Z,1002.6
2016-11-09T01:10:09.039Z,1002.58
2016-11-09T01:10:19.032Z,1002.62
2016-11-09T01:10:29.028Z,1002.65
2016-11-09T01:10:39.018Z,1002.56
2016-11-09T01:10:49.013Z,1002.55
2016-11-09T01:10:59.006Z,1002.55
2016-11-09T01:11:09.001Z,1002.53
2016-11-09T01:11:18.995Z,1002.56
2016-11-09T01:11:28.987Z,1002.6
2016-11-09T01:11:38.982Z,1002.58
2016-11-09T01:11:48.976Z,1002.61
2016-11-09T01:11:58.969Z,1002.55
2016-11-09T01:12:08.961Z,1002.63
2016-11-09T01:12:18.957Z,1002.56
2016-11-09T01:12:28.946Z,1002.64
2016-11-09T01:12:38.943Z,1002.59
2016-11-09T01:12:48.937Z,1002.61
2016-11-09T01:12:58.931Z,1002.58
2016-11-09T01:13:08.925Z,1002.55
2016-11-09T01:13:18.919Z,1002.54
2016-11-09T01:13:28.911Z,1002.6
2016-11-09T01:13:38.902Z,1002.57
2016-11-09T01:13:48.899Z,1002.56
2016-11-09T01:13:58.892Z,1002.54
2016-11-09T01:14:08.887Z,1002.56
2016-11-09T01:14:18.879Z,1002.58
2016-11-09T01:14:29.208Z,1002.57
2016-11-09T01:14:38.864Z,1002.52
2016-11-09T01:14:48.859Z,1002.57
2016-11-09T01:14:58.853Z,1002.56
2016-11-09T01:15:08.848Z,1002.63
2016-11-09T01:15:18.861Z,1002.55
2016-11-09T01:15:28.834Z,1002.55
2016-11-09T01:15:38.829Z,1002.52
2016-11-09T01:15:48.823Z,1002.53
2016-11-09T01:15:58.813Z,1002.52
2016-11-09T01:16:08.809Z,1002.56
2016-11-09T01:16:18.803Z,1002.53
2016-11-09T01:16:28.795Z,1002.57
2016-11-09T01:16:38.790Z,1002.54
2016-11-09T01:16:48.784Z,1002.54
2016-11-09T01:16:58.777Z,1002.59
2016-11-09T01:17:08.771Z,1002.57
2016-11-09T01:17:18.764Z,1002.58
2016-11-09T01:17:28.756Z,1002.53
2016-11-09T01:17:38.779Z,1002.55
2016-11-09T01:17:48.743Z,1002.57
2016-11-09T01:17:58.737Z,1002.51
2016-11-09T01:18:08.731Z,1002.55
2016-11-09T01:18:18.723Z,1002.49
2016-11-09T01:18:28.719Z,1002.52
2016-11-09T01:18:38.711Z,1002.56
2016-11-09T01:18:48.706Z,1002.51
2016-11-09T01:18:58.699Z,1002.47
2016-11-09T01:19:08.691Z,1002.52
2016-11-09T01:19:18.686Z,1002.55
2016-11-09T01:19:28.680Z,1002.51
2016-11-09T01:19:38.674Z,1002.51
2016-11-09T01:19:48.666Z,1002.51
2016-11-09T01:19:58.659Z,1002.52
2016-11-09T01:20:08.653Z,1002.53
2016-11-09T01:20:18.647Z,1002.48
2016-11-09T01:20:28.640Z,1002.51
2016-11-09T01:20:38.657Z,1002.51
2016-11-09T01:20:48.631Z,1002.52
2016-11-09T01:20:58.623Z,1002.53
2016-11-09T01:21:08.615Z,1002.5
2016-11-09T01:21:18.608Z,1002.53
2016-11-09T01:21:28.707Z,1002.47
2016-11-09T01:21:38.595Z,1002.47
2016-11-09T01:21:48.587Z,1002.54
2016-11-09T01:21:58.582Z,1002.54
2016-11-09T01:22:08.577Z,1002.49
2016-11-09T01:22:18.569Z,1002.48
2016-11-09T01:22:28.563Z,1002.49
2016-11-09T01:22:38.557Z,1002.49
2016-11-09T01:22:48.654Z,1002.45
2016-11-09T01:22:58.544Z,1002.48
2016-11-09T01:23:08.535Z,1002.51
2016-11-09T01:23:18.532Z,1002.52
2016-11-09T01:23:28.525Z,1002.5
2016-11-09T01:23:38.519Z,1002.43
2016-11-09T01:23:48.512Z,1002.49
2016-11-09T01:23:58.505Z,1002.44
2016-11-09T01:24:08.500Z,1002.48
2016-11-09T01:24:18.593Z,1002.49
2016-11-09T01:24:28.485Z,1002.48
2016-11-09T01:24:38.482Z,1002.48
2016-11-09T01:24:48.474Z,1002.49
2016-11-09T01:24:58.467Z,1002.47
2016-11-09T01:25:08.462Z,1002.52
2016-11-09T01:25:18.453Z,1002.49
2016-11-09T01:25:28.448Z,1002.48
2016-11-09T01:25:38.442Z,1002.49
2016-11-09T01:25:48.436Z,1002.46
2016-11-09T01:25:58.429Z,1002.46
2016-11-09T01:26:08.423Z,1002.48
2016-11-09T01:26:18.417Z,1002.47
2016-11-09T01:26:28.409Z,1002.47
2016-11-09T01:26:38.402Z,1002.47
2016-11-09T01:26:48.396Z,1002.5
2016-11-09T01:26:58.391Z,1002.5
2016-11-09T01:27:08.384Z,1002.49
2016-11-09T01:27:18.376Z,1002.45
2016-11-09T01:27:28.369Z,1002.47
2016-11-09T01:27:38.365Z,1002.47
2016-11-09T01:27:48.357Z,1002.5
2016-11-09T01:27:58.350Z,1002.49
2016-11-09T01:28:08.346Z,1002.49
2016-11-09T01:28:18.338Z,1002.48
2016-11-09T01:28:28.330Z,1002.47
2016-11-09T01:28:38.325Z,1002.47
2016-11-09T01:28:48.319Z,1002.5
2016-11-09T01:28:58.315Z,1002.45
2016-11-09T01:29:08.305Z,1002.49
2016-11-09T01:29:18.301Z,1002.48
2016-11-09T01:29:28.294Z,1002.44
2016-11-09T01:29:38.288Z,1002.41
2016-11-09T01:29:48.279Z,1002.42
2016-11-09T01:29:58.306Z,1002.43
2016-11-09T01:30:08.268Z,1002.44
2016-11-09T01:30:18.261Z,1002.44
2016-11-09T01:30:28.271Z,1002.47
2016-11-09T01:30:38.249Z,1002.47
2016-11-09T01:30:48.241Z,1002.45
2016-11-09T01:30:58.235Z,1002.45
2016-11-09T01:31:08.228Z,1002.44
2016-11-09T01:31:18.223Z,1002.44
2016-11-09T01:31:28.217Z,1002.44
2016-11-09T01:31:38.209Z,1002.4
2016-11-09T01:31:48.204Z,1002.44
2016-11-09T01:31:58.196Z,1002.4
2016-11-09T01:32:08.191Z,1002.37
2016-11-09T01:32:18.186Z,1002.38
2016-11-09T01:32:28.178Z,1002.43
2016-11-09T01:32:38.172Z,1002.46
2016-11-09T01:32:48.165Z,1002.39
2016-11-09T01:32:58.159Z,1002.41
2016-11-09T01:33:08.150Z,1002.39
2016-11-09T01:33:18.144Z,1002.4
2016-11-09T01:33:28.138Z,1002.4
2016-11-09T01:33:38.133Z,1002.4
2016-11-09T01:33:48.127Z,1002.4
2016-11-09T01:33:58.119Z,1002.36
2016-11-09T01:34:08.114Z,1002.4
2016-11-09T01:34:18.106Z,1002.44
2016-11-09T01:34:28.100Z,1002.38
2016-11-09T01:34:38.094Z,1002.38
2016-11-09T01:34:48.085Z,1002.38
2016-11-09T01:34:58.082Z,1002.37
2016-11-09T01:35:08.074Z,1002.4
2016-11-09T01:35:18.069Z,1002.34
2016-11-09T01:35:28.060Z,1002.42
2016-11-09T01:35:38.056Z,1002.4
2016-11-09T01:35:48.050Z,1002.38
2016-11-09T01:35:58.041Z,1002.36
2016-11-09T01:36:08.034Z,1002.38
2016-11-09T01:36:18.031Z,1002.4
2016-11-09T01:36:28.024Z,1002.39
2016-11-09T01:36:38.017Z,1002.35
2016-11-09T01:36:48.012Z,1002.37
2016-11-09T01:36:58.004Z,1002.38
2016-11-09T01:37:07.997Z,1002.39
2016-11-09T01:37:17.990Z,1002.4
2016-11-09T01:37:27.985Z,1002.4
2016-11-09T01:37:37.980Z,1002.33
2016-11-09T01:37:47.972Z,1002.37
2016-11-09T01:37:57.965Z,1002.32
2016-11-09T01:38:07.959Z,1002.38
2016-11-09T01:38:17.953Z,1002.41
2016-11-09T01:38:27.947Z,1002.35
2016-11-09T01:38:37.939Z,1002.42
2016-11-09T01:38:48.267Z,1002.39
2016-11-09T01:38:57.928Z,1002.34
2016-11-09T01:39:07.920Z,1002.36
2016-11-09T01:39:17.914Z,1002.31
2016-11-09T01:39:27.907Z,1002.37
2016-11-09T01:39:37.901Z,1002.35
2016-11-09T01:39:47.894Z,1002.35
2016-11-09T01:39:57.887Z,1002.33
2016-11-09T01:40:07.881Z,1002.29
2016-11-09T01:40:17.875Z,1002.31
2016-11-09T01:40:27.868Z,1002.36
2016-11-09T01:40:37.862Z,1002.35
2016-11-09T01:40:47.857Z,1002.3
2016-11-09T01:40:57.850Z,1002.33
2016-11-09T01:41:07.842Z,1002.3
2016-11-09T01:41:17.835Z,1002.32
2016-11-09T01:41:27.830Z,1002.32
2016-11-09T01:41:37.825Z,1002.3
2016-11-09T01:41:47.818Z,1002.25
2016-11-09T01:41:57.811Z,1002.31
2016-11-09T01:42:07.804Z,1002.26
2016-11-09T01:42:17.796Z,1002.28
2016-11-09T01:42:27.895Z,1002.32
2016-11-09T01:42:37.786Z,1002.31
2016-11-09T01:42:47.780Z,1002.3
2016-11-09T01:42:57.773Z,1002.3
2016-11-09T01:43:07.766Z,1002.3
2016-11-09T01:43:17.761Z,1002.32
2016-11-09T01:43:27.754Z,1002.3
2016-11-09T01:43:37.746Z,1002.26
2016-11-09T01:43:47.740Z,1002.24
2016-11-09T01:43:57.735Z,1002.23
2016-11-09T01:44:07.728Z,1002.19
2016-11-09T01:44:17.720Z,1002.27
2016-11-09T01:44:27.714Z,1002.24
2016-11-09T01:44:37.707Z,1002.28
2016-11-09T01:44:47.701Z,1002.26
2016-11-09T01:44:57.694Z,1002.26
2016-11-09T01:45:07.688Z,1002.25
2016-11-09T01:45:17.785Z,1002.26
2016-11-09T01:45:27.677Z,1002.27
2016-11-09T01:45:37.669Z,1002.27
2016-11-09T01:45:47.662Z,1002.31
2016-11-09T01:45:57.656Z,1002.28
2016-11-09T01:46:07.651Z,1002.29
2016-11-09T01:46:17.642Z,1002.28
2016-11-09T01:46:27.638Z,1002.24
2016-11-09T01:46:37.628Z,1002.25
2016-11-09T01:46:47.624Z,1002.27
2016-11-09T01:46:57.619Z,1002.25
2016-11-09T01:47:07.611Z,1002.31
2016-11-09T01:47:17.626Z,1002.28
2016-11-09T01:47:27.599Z,1002.23
2016-11-09T01:47:37.592Z,1002.23
2016-11-09T01:47:47.587Z,1002.27
2016-11-09T01:47:57.578Z,1002.25
2016-11-09T01:48:07.572Z,1002.26
2016-11-09T01:48:17.567Z,1002.22
2016-11-09T01:48:27.559Z,1002.19
2016-11-09T01:48:37.553Z,1002.22
2016-11-09T01:48:47.547Z,1002.22
2016-11-09T01:48:57.541Z,1002.2
2016-11-09T01:49:07.536Z,1002.17
2016-11-09T01:49:17.528Z,1002.2
2016-11-09T01:49:27.522Z,1002.23
2016-11-09T01:49:37.515Z,1002.22
2016-11-09T01:49:47.509Z,1002.22
2016-11-09T01:49:57.503Z,1002.18
2016-11-09T01:50:07.496Z,1002.16
2016-11-09T01:50:17.488Z,1002.15
2016-11-09T01:50:27.482Z,1002.21
2016-11-09T01:50:37.476Z,1002.2
2016-11-09T01:50:47.471Z,1002.17
2016-11-09T01:50:57.464Z,1002.16
2016-11-09T01:51:07.459Z,1002.15
2016-11-09T01:51:17.553Z,1002.14
2016-11-09T01:51:27.444Z,1002.15
2016-11-09T01:51:37.439Z,1002.19
2016-11-09T01:51:47.436Z,1002.16
2016-11-09T01:51:57.425Z,1002.16
2016-11-09T01:52:07.418Z,1002.14
2016-11-09T01:52:17.412Z,1002.14
2016-11-09T01:52:27.409Z,1002.18
2016-11-09T01:52:37.400Z,1002.16
2016-11-09T01:52:47.392Z,1002.16
2016-11-09T01:52:57.386Z,1002.12
2016-11-09T01:53:07.380Z,1002.14
2016-11-09T01:53:17.372Z,1002.15
2016-11-09T01:53:27.384Z,1002.19
2016-11-09T01:53:37.362Z,1002.16
2016-11-09T01:53:47.689Z,1002.14
2016-11-09T01:53:57.351Z,1002.11
2016-11-09T01:54:07.342Z,1002.11
2016-11-09T01:54:17.334Z,1002.17
2016-11-09T01:54:27.329Z,1002.17
2016-11-09T01:54:37.323Z,1002.15
2016-11-09T01:54:47.317Z,1002.13
2016-11-09T01:54:57.310Z,1002.11
2016-11-09T01:55:07.650Z,1002.13
2016-11-09T01:55:17.297Z,1002.19
2016-11-09T01:55:27.292Z,1002.16
2016-11-09T01:55:37.284Z,1002.18
2016-11-09T01:55:47.279Z,1002.17
2016-11-09T01:55:57.270Z,1002.16
2016-11-09T01:56:07.264Z,1002.12
2016-11-09T01:56:17.260Z,1002.15
2016-11-09T01:56:27.272Z,1002.11
2016-11-09T01:56:37.246Z,1002.17
2016-11-09T01:56:47.240Z,1002.15
2016-11-09T01:56:57.231Z,1002.13
2016-11-09T01:57:07.228Z,1002.18
2016-11-09T01:57:17.217Z,1002.18
2016-11-09T01:57:27.215Z,1002.16
2016-11-09T01:57:37.206Z,1002.22
2016-11-09T01:57:47.200Z,1002.12
2016-11-09T01:57:57.192Z,1002.19
2016-11-09T01:58:07.188Z,1002.18
2016-11-09T01:58:17.181Z,1002.16
2016-11-09T01:58:27.174Z,1002.11
2016-11-09T01:58:37.166Z,1002.15
2016-11-09T01:58:47.164Z,1002.15
2016-11-09T01:58:57.156Z,1002.16
2016-11-09T01:59:07.483Z,1002.15
2016-11-09T01:59:17.143Z,1002.16
2016-11-09T01:59:27.137Z,1002.15
2016-11-09T01:59:37.126Z,1002.18
2016-11-09T01:59:47.125Z,1002.12
2016-11-09T01:59:57.117Z,1002.2
2016-11-09T02:00:07.110Z,1002.12
2016-11-09T02:00:17.107Z,1002.14
2016-11-09T02:00:27.098Z,1002.16
2016-11-09T02:00:37.092Z,1002.13
2016-11-09T02:00:47.084Z,1002.13
2016-11-09T02:00:57.076Z,1002.11
2016-11-09T02:01:07.070Z,1002.15
2016-11-09T02:01:17.065Z,1002.15